Time;durP1;ratioP1;P1;durP2;ratioP2;P2;SDS_P1;SDS_P2;PMS_P1;PMS_P2;Temp;Humidity;BMP_temperature;BMP_pressure;BME280_temperature;BME280_humidity;BME280_pressure;Samples;Min_cycle;Max_cycle;Signal;HPM_P1;HPM_P2
2021/05/13 00:00:45;;;;;;;2.45;1.17;;;;;;;6.88;80.23;100388.38;4991314;28;20027;-83
2021/05/13 00:03:11;;;;;;;2.20;1.00;;;;;;;6.79;80.29;100381.31;4973115;28;20110;-85
2021/05/13 00:05:37;;;;;;;1.42;0.90;;;;;;;6.68;80.19;100373.59;4971624;28;20098;-84
2021/05/13 00:08:03;;;;;;;1.33;0.90;;;;;;;6.60;80.13;100379.72;4965144;28;20030;-85
2021/05/13 00:10:29;;;;;;;1.50;0.90;;;;;;;6.40;80.29;100373.78;4972008;28;20055;-82
2021/05/13 00:12:58;;;;;;;1.55;0.90;;;;;;;6.26;81.05;100374.38;4981483;28;20518;-85
2021/05/13 00:15:29;;;;;;;1.92;1.17;;;;;;;6.32;81.13;100387.06;4977718;28;20099;-85
2021/05/13 00:17:56;;;;;;;3.10;1.58;;;;;;;6.39;81.24;100388.97;4979927;28;20558;-85
2021/05/13 00:20:24;;;;;;;2.22;1.20;;;;;;;6.43;80.84;100393.97;4994168;28;20022;-84
2021/05/13 00:22:50;;;;;;;2.72;1.42;;;;;;;6.47;81.62;100392.69;4969091;28;20050;-85
2021/05/13 00:25:15;;;;;;;3.22;2.25;;;;;;;6.46;81.71;100386.50;4968485;28;20118;-84
2021/05/13 00:27:41;;;;;;;3.65;2.08;;;;;;;6.56;81.86;100395.25;4965866;28;20047;-84
2021/05/13 00:30:07;;;;;;;3.53;2.03;;;;;;;6.54;82.17;100391.91;4950778;28;20418;-85
2021/05/13 00:32:36;;;;;;;3.53;1.80;;;;;;;6.48;82.40;100387.16;4991847;28;20035;-85
2021/05/13 00:35:02;;;;;;;2.05;1.70;;;;;;;6.55;82.02;100393.56;4980989;28;20026;-85
2021/05/13 00:37:27;;;;;;;3.42;1.92;;;;;;;6.59;82.29;100400.28;4969984;28;20064;-83
2021/05/13 00:39:52;;;;;;;3.85;2.00;;;;;;;6.55;81.46;100384.72;4969083;28;20089;-85
2021/05/13 00:42:18;;;;;;;2.90;1.73;;;;;;;6.55;81.61;100400.75;4968640;28;20562;-85
2021/05/13 00:44:45;;;;;;;3.08;1.55;;;;;;;6.50;80.52;100393.19;4949182;28;20026;-85
2021/05/13 00:47:12;;;;;;;2.47;1.20;;;;;;;6.39;79.85;100391.63;4966738;28;20058;-84
2021/05/13 00:49:38;;;;;;;1.83;1.30;;;;;;;6.36;79.63;100401.81;4970610;28;20038;-85
2021/05/13 00:52:07;;;;;;;1.95;1.20;;;;;;;6.15;79.74;100373.63;4966227;28;20023;-84
2021/05/13 00:54:32;;;;;;;2.00;1.10;;;;;;;6.25;79.81;100396.72;4981596;28;20395;-83
2021/05/13 00:56:57;;;;;;;2.92;1.33;;;;;;;6.19;79.62;100400.84;4969309;28;20033;-84
2021/05/13 00:59:25;;;;;;;3.55;1.50;;;;;;;6.10;80.30;100397.28;4962787;28;20030;-83
2021/05/13 01:01:51;;;;;;;4.85;1.65;;;;;;;5.93;80.20;100382.13;4952254;28;20031;-84
2021/05/13 01:04:20;;;;;;;3.25;1.80;;;;;;;6.06;80.27;100406.59;4986340;28;20034;-83
2021/05/13 01:06:47;;;;;;;4.28;1.88;;;;;;;6.13;80.72;100412.16;4978820;28;20038;-85
2021/05/13 01:09:19;;;;;;;2.85;1.65;;;;;;;6.13;80.53;100418.31;4958470;28;20051;-85
2021/05/13 01:11:45;;;;;;;3.42;1.63;;;;;;;6.10;80.84;100405.28;4967701;28;20133;-85
2021/05/13 01:16:50;;;;;;;1.63;1.27;;;;;;;6.02;80.51;100394.56;4990721;28;20024;-85
2021/05/13 01:19:17;;;;;;;1.75;1.23;;;;;;;5.99;80.84;100400.19;4984838;28;20541;-83
2021/05/13 01:21:43;;;;;;;1.70;1.30;;;;;;;5.86;80.43;100392.56;4963249;28;20018;-85
2021/05/13 01:24:09;;;;;;;3.08;1.40;;;;;;;5.88;79.91;100405.75;4970868;28;20751;-84
2021/05/13 01:26:34;;;;;;;2.10;1.42;;;;;;;5.88;80.16;100419.94;4972181;28;20019;-85
2021/05/13 01:29:00;;;;;;;4.55;1.65;;;;;;;5.86;80.06;100421.06;4968342;28;20035;-83
2021/05/13 01:31:26;;;;;;;2.45;1.20;;;;;;;5.82;80.58;100415.22;4964379;28;20030;-85
2021/05/13 01:33:51;;;;;;;1.90;1.35;;;;;;;5.75;81.17;100402.63;4969000;28;20478;-84
2021/05/13 01:36:16;;;;;;;3.83;1.80;;;;;;;5.79;81.99;100407.50;4984515;28;20117;-83
2021/05/13 01:38:42;;;;;;;2.13;1.50;;;;;;;5.90;82.07;100420.63;4968067;28;20026;-84
2021/05/13 01:41:08;;;;;;;2.13;1.60;;;;;;;5.91;82.24;100408.13;4972500;28;20445;-84
2021/05/13 01:43:33;;;;;;;3.33;1.70;;;;;;;5.89;82.15;100407.41;4969725;28;20572;-84
2021/05/13 01:46:00;;;;;;;3.67;1.67;;;;;;;5.89;81.84;100400.25;4984243;28;20359;-84
2021/05/13 01:48:27;;;;;;;3.13;1.80;;;;;;;5.91;82.10;100408.13;4968342;28;20037;-84
2021/05/13 01:50:52;;;;;;;2.10;1.70;;;;;;;5.81;81.81;100407.34;4967156;28;20037;-84
2021/05/13 01:53:18;;;;;;;4.07;1.80;;;;;;;5.83;81.82;100416.88;4970300;28;20035;-84
2021/05/13 01:55:44;;;;;;;3.90;1.77;;;;;;;5.70;81.93;100411.94;4982762;28;20030;-84
2021/05/13 01:58:09;;;;;;;4.00;1.70;;;;;;;5.62;82.34;100403.84;4964073;28;20034;-84
2021/05/13 02:00:36;;;;;;;4.07;1.90;;;;;;;5.72;82.44;100417.97;4989181;28;20027;-84
2021/05/13 02:03:02;;;;;;;3.47;1.80;;;;;;;5.72;82.70;100417.97;4987513;28;20047;-82
2021/05/13 02:05:28;;;;;;;3.47;1.90;;;;;;;5.69;82.63;100404.94;4996220;28;20166;-82
2021/05/13 02:07:53;;;;;;;4.20;1.83;;;;;;;5.74;82.41;100409.78;4964842;28;20883;-82
2021/05/13 02:10:19;;;;;;;2.25;1.65;;;;;;;5.77;83.04;100417.50;4966905;28;20030;-84
2021/05/13 02:12:45;;;;;;;3.95;1.70;;;;;;;5.62;82.37;100411.84;4989989;28;20031;-83
2021/05/13 02:15:15;;;;;;;2.78;1.80;;;;;;;5.69;82.96;100415.59;4992283;28;20027;-83
2021/05/13 02:17:41;;;;;;;3.05;2.10;;;;;;;5.59;82.14;100420.16;4965421;28;20126;-84
2021/05/13 02:20:09;;;;;;;2.95;2.05;;;;;;;5.49;81.57;100411.41;4968726;28;20113;-83
2021/05/13 02:22:34;;;;;;;3.40;1.80;;;;;;;5.43;81.36;100418.19;4983195;28;20054;-82
2021/05/13 02:25:00;;;;;;;3.28;1.75;;;;;;;5.37;81.79;100404.59;4966376;28;20022;-83
2021/05/13 02:27:25;;;;;;;2.65;2.22;;;;;;;5.47;82.11;100421.38;4993750;28;20068;-85
2021/05/13 02:29:51;;;;;;;2.67;1.73;;;;;;;5.41;82.64;100419.31;4950303;28;20058;-83
2021/05/13 02:32:16;;;;;;;2.78;1.48;;;;;;;5.28;83.36;100411.66;4989788;28;20065;-84
2021/05/13 02:34:42;;;;;;;2.00;1.63;;;;;;;5.26;83.83;100419.81;4952394;28;20078;-85
2021/05/13 02:37:07;;;;;;;2.70;1.88;;;;;;;5.26;84.08;100419.81;4950650;28;20034;-83
2021/05/13 02:39:32;;;;;;;2.30;1.63;;;;;;;5.32;83.90;100430.88;4953300;28;20076;-85
2021/05/13 02:41:58;;;;;;;4.13;2.10;;;;;;;5.27;84.63;100418.84;4970993;28;20398;-84
2021/05/13 02:44:23;;;;;;;2.80;1.70;;;;;;;5.29;84.33;100413.34;4976565;28;20346;-84
2021/05/13 02:46:49;;;;;;;2.35;1.95;;;;;;;5.38;83.92;100419.63;4970945;28;20532;-86
2021/05/13 02:49:14;;;;;;;2.95;1.90;;;;;;;5.09;83.79;100395.81;4972696;28;20030;-83
2021/05/13 02:51:39;;;;;;;3.38;1.73;;;;;;;4.89;84.04;100373.75;4951240;28;20026;-85
2021/05/13 02:54:05;;;;;;;3.05;1.98;;;;;;;4.97;83.25;100413.81;4964723;28;20502;-84
2021/05/13 02:56:30;;;;;;;2.78;2.10;;;;;;;4.73;83.99;100372.56;4992065;28;20038;-84
2021/05/13 02:58:56;;;;;;;2.40;1.60;;;;;;;4.96;83.53;100406.81;4957981;28;20019;-84
2021/05/13 03:01:30;;;;;;;2.40;1.60;;;;;;;4.92;84.01;100406.28;4966531;28;20035;-85
2021/05/13 03:03:57;;;;;;;2.67;1.90;;;;;;;4.90;83.95;100407.41;4966988;28;20034;-85
2021/05/13 03:06:25;;;;;;;3.67;2.15;;;;;;;4.80;83.55;100388.81;4981095;28;20045;-84
2021/05/13 03:08:55;;;;;;;2.58;1.90;;;;;;;4.91;83.61;100406.41;4961123;28;20033;-85
2021/05/13 03:11:22;;;;;;;2.30;1.80;;;;;;;5.00;83.05;100413.50;4974500;28;20019;-83
2021/05/13 03:13:50;;;;;;;3.30;1.90;;;;;;;4.92;82.59;100402.75;4964511;28;20026;-86
2021/05/13 03:16:15;;;;;;;2.58;1.92;;;;;;;4.84;82.21;100398.16;4964338;28;20486;-84
2021/05/13 03:18:44;;;;;;;2.58;1.73;;;;;;;4.84;82.95;100412.34;4993451;28;20042;-85
2021/05/13 03:21:15;;;;;;;2.42;1.70;;;;;;;4.80;83.29;100410.94;4969655;28;20034;-84
2021/05/13 03:26:16;;;;;;;2.85;1.67;;;;;;;4.85;83.42;100418.50;4967421;28;20043;-84
2021/05/13 03:28:41;;;;;;;2.88;2.00;;;;;;;4.80;82.96;100405.63;4966404;28;20026;-85
2021/05/13 03:31:07;;;;;;;2.40;1.80;;;;;;;4.74;82.70;100408.88;4961113;28;20038;-85
2021/05/13 03:33:32;;;;;;;2.38;1.75;;;;;;;4.69;82.34;100404.97;4967719;28;20031;-84
2021/05/13 03:35:57;;;;;;;3.42;2.05;;;;;;;4.37;82.92;100377.75;4980559;28;20023;-83
2021/05/13 03:38:23;;;;;;;2.85;2.00;;;;;;;4.27;83.01;100387.59;4963827;28;20026;-84
2021/05/13 03:40:48;;;;;;;2.17;1.50;;;;;;;4.30;82.48;100400.59;4992677;28;20606;-84
2021/05/13 03:43:14;;;;;;;2.00;1.70;;;;;;;4.28;83.03;100410.53;4970883;28;20026;-84
2021/05/13 03:45:39;;;;;;;2.33;1.67;;;;;;;4.30;82.48;100426.38;4967762;28;20035;-84
2021/05/13 03:48:05;;;;;;;2.35;1.60;;;;;;;4.18;83.39;100428.34;4984553;28;20397;-84
2021/05/13 03:50:33;;;;;;;2.47;1.58;;;;;;;4.13;83.62;100404.03;4956455;28;20461;-83
2021/05/13 03:52:58;;;;;;;2.53;1.90;;;;;;;4.10;83.53;100410.47;4970835;28;20034;-83
2021/05/13 03:55:24;;;;;;;2.38;1.70;;;;;;;4.16;84.13;100414.38;4969921;28;20039;-84
2021/05/13 03:57:50;;;;;;;2.22;1.90;;;;;;;4.26;83.52;100424.97;4967151;28;20402;-84
2021/05/13 04:00:19;;;;;;;2.97;1.60;;;;;;;4.23;83.58;100423.44;4971233;28;20059;-84
2021/05/13 04:02:44;;;;;;;3.17;1.67;;;;;;;4.25;83.71;100424.16;4968644;28;20031;-85
2021/05/13 04:05:11;;;;;;;2.38;1.67;;;;;;;4.28;84.10;100439.81;4953874;28;20035;-84
2021/05/13 04:07:37;;;;;;;4.25;2.15;;;;;;;4.28;83.50;100425.69;4955532;28;20023;-84
2021/05/13 04:10:06;;;;;;;11.02;2.30;;;;;;;4.35;83.21;100445.44;4997034;28;20030;-84
2021/05/13 04:12:31;;;;;;;3.90;1.90;;;;;;;4.31;82.95;100447.56;4955643;28;20202;-84
2021/05/13 04:14:58;;;;;;;11.90;2.25;;;;;;;4.10;83.51;100420.25;4972288;28;20139;-84
2021/05/13 04:17:23;;;;;;;5.70;2.00;;;;;;;4.12;84.21;100432.44;4971454;28;20030;-83
2021/05/13 04:19:49;;;;;;;15.05;2.40;;;;;;;3.92;84.51;100402.38;4970813;28;20029;-83
2021/05/13 04:22:15;;;;;;;7.78;1.98;;;;;;;4.16;84.17;100443.66;4975828;28;20023;-84
2021/05/13 04:24:42;;;;;;;5.05;1.45;;;;;;;3.88;84.20;100390.31;4972964;28;20120;-84
2021/05/13 04:27:07;;;;;;;2.08;1.60;;;;;;;4.13;83.62;100434.13;4976396;28;20050;-84
2021/05/13 04:29:32;;;;;;;2.58;1.70;;;;;;;4.17;84.64;100450.63;4965745;28;20058;-84
2021/05/13 04:31:58;;;;;;;3.47;1.65;;;;;;;4.11;84.87;100435.25;4972174;28;20019;-83
2021/05/13 04:34:24;;;;;;;2.70;1.83;;;;;;;4.02;84.85;100420.13;4964984;28;20333;-84
2021/05/13 04:36:49;;;;;;;2.05;1.70;;;;;;;4.19;84.56;100440.69;4969744;28;20019;-84
2021/05/13 04:39:15;;;;;;;4.05;1.67;;;;;;;3.99;84.49;100404.44;4965292;28;20030;-84
2021/05/13 04:41:40;;;;;;;3.45;1.80;;;;;;;4.33;84.37;100458.03;4991985;28;20029;-84
2021/05/13 04:44:06;;;;;;;2.55;1.80;;;;;;;4.25;84.50;100440.13;4973443;28;20037;-84
2021/05/13 04:46:33;;;;;;;2.33;1.60;;;;;;;4.29;84.58;100441.53;4970395;28;20110;-84
2021/05/13 04:51:27;;;;;;;2.25;1.60;;;;;;;4.44;85.26;100443.72;4995452;28;20031;-84
2021/05/13 04:53:53;;;;;;;2.72;1.80;;;;;;;4.37;83.85;100432.81;4967336;28;20027;-84
2021/05/13 04:56:22;;;;;;;2.25;1.70;;;;;;;4.38;84.00;100432.66;4985989;28;20034;-84
2021/05/13 04:58:48;;;;;;;2.55;1.55;;;;;;;4.17;83.59;100427.53;4972014;28;20025;-85
2021/05/13 05:01:14;;;;;;;3.22;1.75;;;;;;;4.15;83.45;100456.13;4994703;28;20545;-84
2021/05/13 05:03:39;;;;;;;2.72;1.48;;;;;;;3.74;83.62;100409.38;4982667;28;20119;-84
2021/05/13 05:06:05;;;;;;;3.88;1.80;;;;;;;3.92;83.30;100450.25;4996707;28;20029;-84
2021/05/13 05:08:30;;;;;;;2.83;1.75;;;;;;;3.83;83.04;100453.72;4988748;28;20027;-84
2021/05/13 05:10:56;;;;;;;2.90;1.80;;;;;;;3.79;83.74;100451.50;4972962;28;20505;-84
2021/05/13 05:13:22;;;;;;;2.40;1.67;;;;;;;3.71;83.45;100462.84;4995011;28;20474;-84
2021/05/13 05:15:47;;;;;;;2.95;1.73;;;;;;;3.58;84.57;100448.97;4987514;28;20027;-85
2021/05/13 05:18:21;;;;;;;2.28;1.45;;;;;;;3.57;84.29;100453.41;4959433;28;20031;-83
2021/05/13 05:20:46;;;;;;;;;;;;;;;3.50;84.79;100461.13;4981629;28;20055;-82
2021/05/13 05:23:12;;;;;;;4.32;1.60;;;;;;;3.49;84.29;100453.28;4985837;28;19914;-87
2021/05/13 05:25:39;;;;;;;2.72;1.63;;;;;;;3.44;83.95;100439.56;4969259;28;20549;-85
2021/05/13 05:28:05;;;;;;;3.25;1.90;;;;;;;3.56;84.29;100458.91;4970788;28;20165;-85
2021/05/13 05:30:34;;;;;;;5.63;2.00;;;;;;;3.61;85.04;100454.84;4969228;28;20058;-85
2021/05/13 05:33:01;;;;;;;4.45;2.30;;;;;;;3.53;85.34;100426.28;4967786;28;20030;-86
2021/05/13 05:35:27;;;;;;;4.60;2.45;;;;;;;3.79;85.01;100446.19;4995148;28;20475;-84
2021/05/13 05:37:54;;;;;;;5.05;2.35;;;;;;;4.00;85.02;100465.50;4963384;28;20113;-85
2021/05/13 05:40:20;;;;;;;3.17;2.45;;;;;;;3.93;85.10;100437.78;4969376;28;20051;-85
2021/05/13 05:42:46;;;;;;;4.07;2.50;;;;;;;4.15;84.92;100455.25;4989181;28;20110;-86
2021/05/13 05:45:12;;;;;;;4.60;2.63;;;;;;;4.30;85.10;100456.50;4991280;28;20101;-85
2021/05/13 05:47:37;;;;;;;4.32;2.50;;;;;;;4.45;84.67;100445.41;4962582;28;20062;-84
2021/05/13 05:50:03;;;;;;;5.20;2.38;;;;;;;4.66;85.03;100464.69;4965306;28;20410;-86
2021/05/13 05:52:29;;;;;;;3.25;2.40;;;;;;;4.82;85.29;100454.25;4969184;28;20043;-85
2021/05/13 05:54:56;;;;;;;3.20;2.25;;;;;;;4.72;85.21;100433.97;4952547;28;20612;-85
2021/05/13 05:57:21;;;;;;;4.40;2.53;;;;;;;4.96;85.25;100458.28;4968572;28;20053;-85
2021/05/13 05:59:46;;;;;;;5.15;2.45;;;;;;;5.10;85.07;100466.75;4968047;28;20410;-86
2021/05/13 06:02:12;;;;;;;3.22;2.20;;;;;;;5.16;84.71;100482.16;4978850;28;20027;-87
2021/05/13 06:04:37;;;;;;;2.70;2.03;;;;;;;5.11;84.84;100479.94;4963464;28;20031;-84
2021/05/13 06:07:03;;;;;;;3.75;2.20;;;;;;;5.09;85.04;100465.09;4987365;28;20034;-86
2021/05/13 06:09:28;;;;;;;2.70;1.77;;;;;;;5.18;85.51;100485.53;4988034;28;20394;-85
2021/05/13 06:11:53;;;;;;;3.85;2.10;;;;;;;5.25;85.14;100482.13;4961256;28;20026;-83
2021/05/13 06:14:19;;;;;;;2.17;1.70;;;;;;;5.19;84.85;100469.38;4988745;28;20022;-85
2021/05/13 06:16:44;;;;;;;3.25;1.88;;;;;;;5.27;85.25;100487.31;4976821;28;20648;-84
2021/05/13 06:19:09;;;;;;;2.78;1.73;;;;;;;5.33;85.31;100484.03;4964731;28;20027;-86
2021/05/13 06:21:38;;;;;;;3.63;2.28;;;;;;;5.44;85.21;100489.16;4999012;28;20084;-86
2021/05/13 06:24:08;;;;;;;2.05;1.73;;;;;;;5.54;85.22;100486.44;4983794;28;20094;-85
2021/05/13 06:26:33;;;;;;;2.70;1.70;;;;;;;5.65;85.11;100493.41;4949293;28;20097;-86
2021/05/13 06:28:59;;;;;;;2.78;2.03;;;;;;;5.64;84.95;100495.25;4984600;28;20027;-86
2021/05/13 06:31:25;;;;;;;4.10;2.20;;;;;;;5.78;85.11;100493.03;4974173;28;20023;-86
2021/05/13 06:33:50;;;;;;;2.97;1.77;;;;;;;5.78;85.26;100485.88;4980516;28;22469;-86
2021/05/13 06:36:16;;;;;;;3.88;1.90;;;;;;;5.87;85.05;100489.44;4993250;28;20046;-86
2021/05/13 06:38:43;;;;;;;3.03;1.88;;;;;;;5.89;85.16;100480.31;4998337;28;20026;-85
2021/05/13 06:41:09;;;;;;;4.00;2.30;;;;;;;6.02;84.93;100498.63;4974879;28;20050;-86
2021/05/13 06:43:36;;;;;;;4.45;2.47;;;;;;;5.97;85.36;100482.25;4974574;28;20085;-86
2021/05/13 06:46:02;;;;;;;3.47;2.20;;;;;;;6.08;85.32;100495.34;4996226;28;20027;-86
2021/05/13 06:48:28;;;;;;;2.63;2.00;;;;;;;6.06;85.41;100496.50;4998910;28;20413;-86
2021/05/13 06:50:53;;;;;;;3.25;2.20;;;;;;;6.09;85.09;100497.03;5003136;28;20034;-85
2021/05/13 06:53:19;;;;;;;3.90;2.13;;;;;;;6.03;85.44;100476.28;4975805;28;20159;-84
2021/05/13 06:55:51;;;;;;;3.75;2.53;;;;;;;6.27;84.70;100496.19;4964464;28;20114;-83
2021/05/13 06:58:16;;;;;;;3.70;2.40;;;;;;;6.30;84.78;100488.72;4973992;28;20039;-84
2021/05/13 07:00:42;;;;;;;4.57;2.40;;;;;;;6.41;84.06;100497.47;4956245;28;20022;-83
2021/05/13 07:03:07;;;;;;;3.45;2.50;;;;;;;6.39;84.63;100487.78;4954258;28;20031;-83
2021/05/13 07:05:32;;;;;;;4.00;2.10;;;;;;;6.36;84.79;100480.06;4971567;28;20090;-86
2021/05/13 07:07:58;;;;;;;3.67;2.50;;;;;;;6.41;84.50;100484.97;4987320;28;20088;-86
2021/05/13 07:10:23;;;;;;;3.97;2.65;;;;;;;6.39;84.69;100476.25;5007624;28;20215;-85
2021/05/13 07:12:49;;;;;;;3.47;2.20;;;;;;;6.44;85.40;100481.97;4989494;28;20529;-86
2021/05/13 07:15:14;;;;;;;2.88;2.30;;;;;;;6.53;85.15;100482.84;4992419;28;20118;-86
2021/05/13 07:17:39;;;;;;;3.92;2.45;;;;;;;6.63;85.41;100480.09;4974865;28;20106;-83
2021/05/13 07:20:06;;;;;;;3.17;2.13;;;;;;;6.70;84.96;100491.84;4997889;28;20027;-85
2021/05/13 07:22:31;;;;;;;3.97;2.45;;;;;;;6.87;84.85;100480.25;4993459;28;20100;-86
2021/05/13 07:24:57;;;;;;;4.13;2.50;;;;;;;7.09;84.30;100459.28;4971102;28;20026;-86
2021/05/13 07:27:22;;;;;;;3.40;2.50;;;;;;;7.49;83.93;100480.84;4998560;28;20035;-85
2021/05/13 07:29:48;;;;;;;3.45;2.50;;;;;;;7.83;84.01;100521.91;4975601;28;20034;-84
2021/05/13 07:32:13;;;;;;;5.57;2.55;;;;;;;7.74;84.02;100477.41;4973041;28;20026;-85
2021/05/13 07:34:39;;;;;;;3.15;2.25;;;;;;;8.15;83.91;100508.59;4971342;28;20490;-86
2021/05/13 07:37:04;;;;;;;3.95;2.05;;;;;;;8.30;84.09;100510.59;5001725;28;20031;-85
2021/05/13 07:39:30;;;;;;;3.67;2.05;;;;;;;8.25;84.02;100496.84;5001310;28;20031;-85
2021/05/13 07:41:55;;;;;;;3.55;2.20;;;;;;;8.40;83.65;100513.97;4974309;28;20557;-78
2021/05/13 07:44:21;;;;;;;3.85;2.20;;;;;;;8.45;83.59;100525.03;4966697;28;20481;-79
2021/05/13 07:46:48;;;;;;;3.67;2.22;;;;;;;8.57;83.65;100522.84;4977816;28;20026;-78
2021/05/13 07:49:13;;;;;;;5.93;2.15;;;;;;;8.74;83.98;100529.88;4995876;28;20062;-79
2021/05/13 07:51:42;;;;;;;4.43;2.60;;;;;;;8.89;83.09;100518.44;4980678;28;20109;-78
2021/05/13 07:54:07;;;;;;;2.63;1.65;;;;;;;9.09;83.83;100514.38;4990228;28;20090;-79
2021/05/13 07:56:35;;;;;;;4.75;1.90;;;;;;;9.35;82.83;100506.06;4968390;28;20109;-77
2021/05/13 07:59:02;;;;;;;2.10;1.50;;;;;;;9.59;81.77;100517.72;4972689;28;20111;-78
2021/05/13 08:01:27;;;;;;;4.57;1.92;;;;;;;9.76;81.32;100502.34;4969993;28;20026;-79
2021/05/13 08:03:53;;;;;;;5.00;1.80;;;;;;;9.95;81.03;100514.47;4966133;28;20037;-79
2021/05/13 08:06:18;;;;;;;3.75;1.58;;;;;;;10.03;80.78;100507.22;4967100;28;20093;-79
2021/05/13 08:08:44;;;;;;;4.10;1.77;;;;;;;10.23;79.17;100512.09;4969695;28;20479;-79
2021/05/13 08:11:09;;;;;;;3.60;1.80;;;;;;;10.40;79.14;100511.00;4964803;28;20023;-78
2021/05/13 08:13:35;;;;;;;3.97;1.52;;;;;;;10.53;79.30;100518.44;4973469;28;20518;-78
2021/05/13 08:16:01;;;;;;;6.22;1.58;;;;;;;10.71;79.08;100512.72;4967306;28;20026;-78
2021/05/13 08:18:26;;;;;;;3.30;1.40;;;;;;;10.74;78.17;100517.75;4985924;28;20063;-78
2021/05/13 08:20:52;;;;;;;2.33;1.58;;;;;;;10.74;77.83;100504.28;4964826;28;20018;-79
2021/05/13 08:23:17;;;;;;;3.35;1.50;;;;;;;10.74;77.64;100504.28;4969947;28;20023;-79
2021/05/13 08:25:43;;;;;;;3.17;1.20;;;;;;;10.86;76.91;100510.91;4967210;28;20094;-86
2021/05/13 08:28:08;;;;;;;2.45;1.25;;;;;;;10.87;76.52;100503.66;5001504;28;20085;-86
2021/05/13 08:30:34;;;;;;;4.75;1.35;;;;;;;10.91;76.00;100511.19;4976583;28;20038;-84
2021/05/13 08:33:00;;;;;;;3.72;1.20;;;;;;;10.93;75.76;100514.53;4991364;28;20553;-86
2021/05/13 08:35:25;;;;;;;4.78;1.35;;;;;;;11.05;74.67;100496.06;4977452;28;20310;-86
2021/05/13 08:37:51;;;;;;;4.55;1.27;;;;;;;11.23;74.19;100510.00;4976757;28;20039;-86
2021/05/13 08:40:16;;;;;;;3.15;1.30;;;;;;;11.56;73.26;100516.81;4977484;28;20022;-84
2021/05/13 08:42:42;;;;;;;2.85;1.08;;;;;;;11.87;72.17;100514.75;4960975;28;20109;-86
2021/05/13 08:45:08;;;;;;;4.32;1.10;;;;;;;12.17;71.15;100522.75;4999159;28;20037;-85
2021/05/13 08:47:38;;;;;;;3.97;1.55;;;;;;;12.17;70.98;100509.28;4969011;28;20022;-84
2021/05/13 08:50:05;;;;;;;5.43;1.15;;;;;;;12.20;69.94;100514.28;5007924;28;20037;-86
2021/05/13 08:52:31;;;;;;;5.78;1.13;;;;;;;12.44;69.86;100507.66;4975954;28;20034;-85
2021/05/13 08:55:01;;;;;;;3.85;1.23;;;;;;;12.41;69.32;100499.09;4986460;28;20016;-84
2021/05/13 08:57:27;;;;;;;2.35;1.10;;;;;;;12.18;69.42;100508.22;4973822;28;20031;-84
2021/05/13 08:59:54;;;;;;;2.55;1.02;;;;;;;12.06;69.49;100509.75;4974137;28;20037;-86
2021/05/13 09:02:20;;;;;;;4.32;1.27;;;;;;;11.82;69.56;100517.13;4959352;28;20049;-86
2021/05/13 09:04:52;;;;;;;3.53;1.10;;;;;;;11.57;70.53;100507.75;4974666;28;20026;-86
2021/05/13 09:07:24;;;;;;;4.18;1.33;;;;;;;11.54;71.03;100524.28;4999101;28;20019;-86
2021/05/13 09:09:56;;;;;;;3.75;1.00;;;;;;;11.63;70.96;100523.13;4974707;28;20383;-87
2021/05/13 09:12:23;;;;;;;2.65;0.93;;;;;;;11.88;70.58;100527.22;4973538;28;20037;-84
2021/05/13 09:15:06;;;;;;;2.58;0.90;;;;;;;12.00;69.97;100529.41;4974837;28;20030;-86
2021/05/13 09:17:32;;;;;;;3.40;1.10;;;;;;;11.94;69.33;100525.59;4990233;28;20454;-85
2021/05/13 09:19:57;;;;;;;2.40;0.95;;;;;;;11.95;69.26;100521.03;4972929;28;20090;-84
2021/05/13 09:22:24;;;;;;;2.00;1.08;;;;;;;12.51;68.44;100526.56;4979386;28;20049;-85
2021/05/13 09:25:00;;;;;;;1.17;0.88;;;;;;;13.17;67.10;100518.97;4962092;28;20022;-84
2021/05/13 09:27:39;;;;;;;2.25;0.90;;;;;;;13.61;65.55;100519.63;4968025;28;20115;-85
2021/05/13 09:30:24;;;;;;;2.50;0.80;;;;;;;14.20;63.91;100518.13;4993582;28;20899;-86
2021/05/13 09:32:53;;;;;;;0.98;0.80;;;;;;;14.50;62.13;100510.47;4975546;28;20505;-85
2021/05/13 09:35:25;;;;;;;1.50;1.00;;;;;;;14.55;60.21;100499.88;4997604;28;20027;-86
2021/05/13 09:37:53;;;;;;;0.75;0.75;;;;;;;14.20;60.51;100510.03;4970937;28;20038;-84
2021/05/13 09:40:37;;;;;;;2.03;0.88;;;;;;;13.73;60.55;100519.88;4991582;28;20394;-85
2021/05/13 09:43:13;;;;;;;1.42;0.90;;;;;;;13.56;62.45;100509.44;4968669;28;20090;-86
2021/05/13 09:45:45;;;;;;;3.05;1.00;;;;;;;14.02;61.67;100497.09;4976205;28;20090;-85
2021/05/13 09:48:10;;;;;;;2.05;0.80;;;;;;;14.26;60.22;100482.16;4974970;28;20054;-86
2021/05/13 09:50:36;;;;;;;2.53;1.10;;;;;;;14.48;60.56;100501.75;4971022;28;20770;-86
2021/05/13 09:53:03;;;;;;;0.75;0.70;;;;;;;14.49;60.88;100506.94;4973981;28;20027;-85
2021/05/13 09:55:33;;;;;;;2.85;1.00;;;;;;;14.18;60.70;100512.09;4976409;28;20054;-83
2021/05/13 09:58:01;;;;;;;0.73;0.68;;;;;;;13.95;60.21;100507.06;4977038;28;20093;-85
2021/05/13 10:00:34;;;;;;;1.42;1.20;;;;;;;13.72;59.91;100518.22;5001154;28;20128;-86
2021/05/13 10:03:00;;;;;;;1.77;0.80;;;;;;;13.49;60.88;100522.06;4971521;28;20030;-86
2021/05/13 10:05:26;;;;;;;2.25;0.80;;;;;;;13.09;61.47;100497.53;4970412;28;20038;-86
2021/05/13 10:07:52;;;;;;;2.80;0.90;;;;;;;12.85;61.90;100498.81;5007304;28;20515;-84
2021/05/13 10:10:18;;;;;;;2.75;1.00;;;;;;;12.85;62.69;100522.28;4969942;28;20055;-86
2021/05/13 10:12:44;;;;;;;1.98;0.90;;;;;;;12.69;62.78;100518.84;4985223;28;20123;-86
2021/05/13 10:15:10;;;;;;;1.65;0.80;;;;;;;12.62;63.53;100528.75;4975154;28;20585;-85
2021/05/13 10:17:43;;;;;;;1.83;1.00;;;;;;;12.60;64.22;100511.09;4984202;28;20059;-86
2021/05/13 10:20:09;;;;;;;1.53;1.10;;;;;;;12.67;64.36;100526.28;4998909;28;20015;-86
2021/05/13 10:22:35;;;;;;;2.80;0.90;;;;;;;12.70;64.33;100515.13;4967380;28;20273;-85
2021/05/13 10:25:27;;;;;;;1.80;0.85;;;;;;;13.20;64.26;100523.97;4997618;28;20398;-84
2021/05/13 10:27:58;;;;;;;3.45;0.90;;;;;;;13.52;63.19;100513.59;4999681;28;20033;-83
2021/05/13 10:30:26;;;;;;;2.10;1.05;;;;;;;14.20;62.78;100513.56;4974083;28;20459;-86
2021/05/13 10:33:07;;;;;;;2.03;0.80;;;;;;;14.79;59.98;100519.22;4976092;28;20026;-86
2021/05/13 10:35:32;;;;;;;1.77;0.55;;;;;;;14.93;58.23;100519.03;4997230;28;20026;-85
2021/05/13 10:37:59;;;;;;;4.57;0.70;;;;;;;14.75;56.59;100518.84;4957811;28;20097;-85
2021/05/13 10:43:09;;;;;;;3.00;1.05;;;;;;;14.24;57.31;100522.94;4967980;28;20111;-86
2021/05/13 10:45:42;;;;;;;13.70;2.03;;;;;;;14.04;57.83;100530.16;4974856;28;20050;-86
2021/05/13 10:48:22;;;;;;;0.98;0.70;;;;;;;14.11;57.88;100535.59;4955965;28;20026;-85
2021/05/13 10:51:02;;;;;;;2.78;0.90;;;;;;;14.26;58.36;100522.72;4969702;28;20022;-84
2021/05/13 10:53:33;;;;;;;1.77;0.90;;;;;;;14.85;56.72;100529.25;4975072;28;20565;-85
2021/05/13 10:56:25;;;;;;;3.60;1.30;;;;;;;15.15;56.69;100516.88;4976533;28;20433;-86
2021/05/13 10:59:00;;;;;;;1.98;1.02;;;;;;;15.08;57.55;100526.94;4969285;28;20045;-86
2021/05/13 11:01:29;;;;;;;1.52;0.75;;;;;;;14.85;56.73;100527.38;4966458;28;20018;-84
2021/05/13 11:06:50;;;;;;;2.65;0.70;;;;;;;14.97;57.60;100532.97;4973778;28;20022;-84
2021/05/13 11:09:41;;;;;;;1.60;0.82;;;;;;;14.34;58.20;100538.75;4973385;28;20815;-85
2021/05/13 11:12:10;;;;;;;1.70;0.73;;;;;;;13.72;60.22;100531.72;4971882;28;20031;-85
2021/05/13 11:20:35;;;;;;;2.70;1.02;;;;;;;12.73;64.90;100548.97;4973945;28;20086;-85
2021/05/13 11:23:19;;;;;;;1.73;0.90;;;;;;;12.54;65.90;100547.75;4973262;28;20094;-85
2021/05/13 11:26:07;;;;;;;3.08;1.30;;;;;;;12.45;66.93;100538.97;5005228;28;20058;-87
2021/05/13 11:28:42;;;;;;;2.58;1.00;;;;;;;12.41;67.84;100545.78;4990328;28;20023;-86
2021/05/13 11:31:07;;;;;;;2.30;1.10;;;;;;;12.52;68.84;100549.84;4974473;28;20046;-84
2021/05/13 11:33:51;;;;;;;1.60;1.00;;;;;;;12.63;68.37;100548.47;4973500;28;20031;-86
2021/05/13 11:36:23;;;;;;;1.17;0.88;;;;;;;12.72;67.97;100537.31;4973720;28;20499;-83
2021/05/13 11:38:59;;;;;;;1.73;0.90;;;;;;;13.03;68.22;100541.50;4956015;28;20109;-85
2021/05/13 11:41:25;;;;;;;2.65;0.80;;;;;;;13.12;68.76;100540.31;4977177;28;20015;-86
2021/05/13 11:43:51;;;;;;;3.33;1.20;;;;;;;13.05;68.79;100530.53;4976717;28;20549;-86
2021/05/13 11:46:22;;;;;;;2.70;0.90;;;;;;;13.08;69.41;100533.66;4970066;28;20054;-85
2021/05/13 11:48:49;;;;;;;2.08;0.80;;;;;;;13.15;70.23;100533.69;4975808;28;20034;-85
2021/05/13 11:51:25;;;;;;;1.67;0.90;;;;;;;13.28;68.71;100543.75;4976971;28;20027;-84